METAR Data
IDs: Format: Raw Decoded Include TAF

Data at: 1348 UTC 14 Dec 2019

KSRC 141345Z AUTO 00000KT 2SM BR CLR 00/00 A2982 RMK AO2 FZRANO
KSRC 141343Z AUTO 3/4SM BR CLR 00/00 A2982 RMK AO2 FZRANO
KSRC 141333Z AUTO 1/4SM FZFG CLR M01/M01 A2981 RMK AO2 FZRANO
KSRC 141328Z AUTO 00000KT 3/4SM BR CLR M01/M01 A2981 RMK AO2 FZRANO
KSRC 141319Z AUTO 00000KT 1 1/4SM BR CLR M01/M01 A2981 RMK AO2 FZRANO
KSRC 141256Z AUTO 00000KT 3/4SM BR CLR 00/00 A2981 RMK AO2 SLP099 T00000000 FZRANO
KSRC 141252Z AUTO 00000KT 1/2SM FG CLR 00/00 A2981 RMK AO2 FZRANO
KSRC 141237Z AUTO 00000KT 3/4SM BR CLR 01/01 A2980 RMK AO2 VIS 1/2V1 3/4 FZRANO
KSRC 141229Z AUTO 19003KT 1SM BR CLR 01/01 A2980 RMK AO2 FZRANO
KSRC 141156Z AUTO 00000KT 6SM BR SCT120 02/02 A2981 RMK AO2 SLP100 T00170017 10017 21006 55002 FZRANO
KSRC 141056Z AUTO 22003KT 4SM BR CLR 01/01 A2977 RMK AO2 SLP085 T00060006 FZRANO
KSRC 140956Z AUTO 00000KT 6SM BR FEW120 01/01 A2981 RMK AO2 SLP097 T00060006 FZRANO
KSRC 140918Z AUTO 00000KT 3SM BR CLR M01/M01 A2982 RMK AO2 FZRANO
KSRC 140909Z AUTO 00000KT 1 3/4SM BR CLR M01/M01 A2982 RMK AO2 VIS 3/4V4 FZRANO
KSRC 140856Z AUTO 00000KT 3SM BR CLR 00/00 A2982 RMK AO2 SLP103 T00000000 55003 FZRANO
KSRC 140828Z AUTO 00000KT 3SM BR FEW005 01/01 A2980 RMK AO2 FZRANO
KSRC 140756Z AUTO 00000KT 4SM BR FEW110 01/01 A2981 RMK AO2 SLP098 T00060006 FZRANO
KSRC 140715Z AUTO 00000KT 3SM BR CLR 00/00 A2980 RMK AO2 FZRANO
KSRC 140703Z AUTO 00000KT 1 1/2SM BR FEW002 00/00 A2981 RMK AO2 VIS 1/2V3 FZRANO
KSRC 140656Z AUTO 00000KT 2 1/2SM BR FEW002 00/00 A2981 RMK AO2 SLP101 T00000000 FZRANO
KSRC 140651Z AUTO 00000KT 2SM BR SCT002 01/01 A2982 RMK AO2 FZRANO
KSRC 140643Z AUTO 00000KT 1 1/2SM BR BKN002 01/01 A2982 RMK AO2 VIS 1/2V4 FZRANO
KSRC 140638Z AUTO 00000KT 3SM BR BKN002 01/01 A2982 RMK AO2 FZRANO
KSRC 140625Z AUTO 00000KT 2SM BR OVC002 01/01 A2983 RMK AO2 FZRANO
KSRC 140622Z AUTO 00000KT 1SM BR OVC002 01/01 A2983 RMK AO2 FZRANO
KSRC 140616Z AUTO 00000KT 1/2SM FG OVC002 01/01 A2983 RMK AO2 FZRANO
KSRC 140603Z AUTO 00000KT 3/4SM BR OVC002 01/01 A2983 RMK AO2 VIS 1/4V3 FZRANO
KSRC 140556Z AUTO 05003KT 1/4SM FG OVC002 01/01 A2983 RMK AO2 SLP106 T00060006 10061 20006 401000000 58011 FZRANO
KSRC 140551Z AUTO 00000KT 1/4SM FG OVC002 01/01 A2984 RMK AO2 401000000 FZRANO
KSRC 140546Z AUTO 00000KT 3/4SM BR BKN002 01/01 A2984 RMK AO2 FZRANO
KSRC 140543Z AUTO 00000KT 1 3/4SM BR BKN002 01/01 A2984 RMK AO2 VIS 3/4V2 1/2 FZRANO
KSRC 140535Z AUTO 00000KT 2 1/2SM BR BKN004 01/01 A2984 RMK AO2 VIS 1 3/4V3 FZRANO
KSRC 140527Z AUTO 00000KT 3SM BR FEW004 01/01 A2985 RMK AO2 FZRANO
KSRC 140524Z AUTO 00000KT 2SM BR CLR 01/01 A2985 RMK AO2 FZRANO
KSRC 140515Z AUTO 00000KT 1SM BR CLR 01/01 A2985 RMK AO2 FZRANO
KSRC 140510Z AUTO 00000KT 2 1/2SM BR CLR 01/01 A2985 RMK AO2 VIS 1 3/4V3 FZRANO
KSRC 140456Z AUTO 00000KT 3SM BR CLR 01/01 A2985 RMK AO2 SLP111 T00060006 FZRANO
KSRC 140440Z AUTO 00000KT 2SM BR CLR 02/02 A2986 RMK AO2 FZRANO
KSRC 140428Z AUTO 00000KT 4SM BR CLR 02/02 A2986 RMK AO2 FZRANO
KSRC 140421Z AUTO 00000KT 1 3/4SM BR CLR 01/01 A2986 RMK AO2 FZRANO
KSRC 140404Z AUTO 00000KT 1SM BR CLR 02/02 A2985 RMK AO2 FZRANO
KSRC 140356Z AUTO 00000KT 2SM BR CLR 02/02 A2986 RMK AO2 SLP114 T00170017 FZRANO
KSRC 140346Z AUTO 00000KT 2SM BR CLR 02/02 A2986 RMK AO2 VIS 1 1/2V3 FZRANO
KSRC 140308Z AUTO 26003KT 3SM BR CLR 02/02 A2986 RMK AO2 FZRANO
KSRC 140305Z AUTO 27003KT 1 1/4SM BR CLR 02/02 A2986 RMK AO2 FZRANO
KSRC 140256Z AUTO 00000KT 3/4SM BR CLR 02/02 A2986 RMK AO2 SLP116 T00170017 58001 FZRANO
KSRC 140251Z AUTO 00000KT 1 3/4SM BR CLR 02/02 A2986 RMK AO2 FZRANO
KSRC 140211Z AUTO 00000KT 3SM BR CLR 03/03 A2987 RMK AO2
KSRC 140156Z AUTO 00000KT 2 1/2SM BR CLR 03/03 A2987 RMK AO2 SLP118 T00280028
KSRC 140056Z AUTO 00000KT 5SM BR CLR 04/04 A2986 RMK AO2 SLP116 T00390039
KSRC 132356Z AUTO 00000KT 10SM CLR 06/06 A2987 RMK AO2 SLP118 T00610056 10100 20061 55000
KSRC 132256Z AUTO 00000KT 10SM BKN050 BKN095 08/06 A2986 RMK AO2 SLP116 T00830061
KSRC 132156Z AUTO 00000KT 10SM OVC050 10/07 A2986 RMK AO2 SLP116 T01000067
KSRC 132056Z AUTO VRB03KT 10SM SCT055 10/06 A2987 RMK AO2 SLP117 T01000061 56025
KSRC 131956Z AUTO 14003KT 10SM FEW060 09/06 A2988 RMK AO2 SLP121 T00940061
KSRC 131922Z AUTO 11004KT 10SM SCT010 09/07 A2988 RMK AO2
KSRC 131856Z AUTO 00000KT 10SM BKN010 BKN060 09/06 A2990 RMK AO2 SLP129 T00890061
KSRC 131847Z AUTO 18005KT 10SM FEW006 BKN010 OVC060 09/06 A2990 RMK AO2
KSRC 131756Z AUTO 19005KT 10SM OVC006 08/07 A2994 RMK AO2 SLP142 60000 T00780067 10078 20022 58026
KSRC 131729Z AUTO 16004KT 10SM OVC006 08/07 A2995 RMK AO2
KSRC 131641Z AUTO 00000KT 10SM OVC004 07/07 A2999 RMK AO2
KSRC 131556Z AUTO 21003KT 9SM OVC002 06/06 A3001 RMK AO2 SLP165 T00610061
KSRC 131541Z AUTO 19004KT 3SM BR OVC002 06/06 A3001 RMK AO2
KSRC 131537Z AUTO 19003KT 1 1/4SM BR OVC002 06/06 A3001 RMK AO2
KSRC 131533Z AUTO 19003KT 3/4SM BR OVC002 06/06 A3001 RMK AO2
KSRC 131456Z AUTO 1/4SM FG OVC002 05/05 A3002 RMK AO2 RAB44E54 SLP168 P0000 60000 T00500050 58003
KSRC 131356Z AUTO M1/4SM FG OVC002 04/04 A3002 RMK AO2 SLP169 T00390039
KSRC 131307Z AUTO 1/4SM FG OVC002 03/03 A3002 RMK AO2 $
KSRC 131256Z AUTO 00000KT 1/2SM FG OVC002 03/03 A3002 RMK AO2 SLP171 T00330033
KSRC 131209Z AUTO 00000KT 1/4SM FG OVC002 03/03 A3002 RMK AO2
KSRC 131200Z AUTO 00000KT 1/2SM FG OVC002 03/03 A3003 RMK AO2
KSRC 131158Z AUTO 00000KT 3/4SM BR OVC004 03/03 A3002 RMK AO2
KSRC 131156Z AUTO 00000KT 1 1/4SM BR OVC004 02/02 A3002 RMK AO2 SLP171 T00220022 10022 20000 56016 FZRANO
KSRC 131110Z AUTO 00000KT 10SM BKN004 02/02 A3003 RMK AO2 FZRANO
KSRC 131103Z AUTO 36003KT 10SM SCT006 01/01 A3003 RMK AO2 FZRANO
KSRC 131056Z AUTO 00000KT 10SM CLR 01/01 A3003 RMK AO2 SLP175 T00110011 FZRANO
KSRC 130956Z AUTO 00000KT 10SM CLR 00/00 A3005 RMK AO2 SLP181 T00000000 FZRANO
KSRC 130856Z AUTO 29003KT 10SM CLR 01/01 A3007 RMK AO2 SLP187 T00060006 56016 FZRANO
KSRC 130756Z AUTO 00000KT 10SM SCT090 00/00 A3009 RMK AO2 SLP191 T00000000 FZRANO
KSRC 130656Z AUTO 00000KT 10SM CLR 00/00 A3011 RMK AO2 SLP198 T00000000 FZRANO
KSRC 130556Z AUTO 00000KT 10SM CLR 00/00 A3012 RMK AO2 SLP203 T00000000 10056 21011 401281033 56011 FZRANO
KSRC 130456Z AUTO 00000KT 10SM CLR M01/M01 A3013 RMK AO2 SLP207 T10061006 FZRANO
KSRC 130356Z AUTO 00000KT 10SM CLR 00/M01 A3014 RMK AO2 SLP209 T00001006 FZRANO
KSRC 130256Z AUTO 00000KT 10SM CLR 01/01 A3015 RMK AO2 SLP215 T00110006 58005 FZRANO
KSRC 130156Z AUTO 00000KT 10SM CLR 02/00 A3017 RMK AO2 SLP220 T00220000 FZRANO